Terminal Aerodrome Forecast
Issued by NWS

Current Version | Previous Version | Text Only | Print | Product List | Glossary On
Versions: 1 2 3 4 5 6 7 8 9 10 11 12 13 14 15
000
FTPA31 PHFO 270535
TAFHOG
TAF
PHOG 270535Z 2706/2806 05013KT P6SM FEW030 SCT045
     FM272100 05020G28KT P6SM FEW030 SCT045
     FM280500 05014KT P6SM FEW030 SCT045
      AMD LTD TO VIS AND WIND 2709/2716=

USA.gov is the U.S. government's official web portal to all federal, state and local government web resources and services.